sensor_id;sensor_type;location;lat;lon;timestamp;P1;durP1;ratioP1;P2;durP2;ratioP2
15393;SDS011;7795;47.986;11.868;2024-01-10T00:02:11;26.00;;;15.17;;
15393;SDS011;7795;47.986;11.868;2024-01-10T00:04:37;30.87;;;17.67;;
15393;SDS011;7795;47.986;11.868;2024-01-10T00:07:04;29.00;;;17.70;;
15393;SDS011;7795;47.986;11.868;2024-01-10T00:09:30;28.73;;;17.00;;
15393;SDS011;7795;47.986;11.868;2024-01-10T00:11:55;28.90;;;17.13;;
15393;SDS011;7795;47.986;11.868;2024-01-10T00:14:21;27.30;;;17.43;;
15393;SDS011;7795;47.986;11.868;2024-01-10T00:16:47;27.47;;;17.63;;
15393;SDS011;7795;47.986;11.868;2024-01-10T00:19:13;29.30;;;18.30;;
15393;SDS011;7795;47.986;11.868;2024-01-10T00:21:39;28.93;;;17.33;;
15393;SDS011;7795;47.986;11.868;2024-01-10T00:24:06;29.77;;;17.63;;
15393;SDS011;7795;47.986;11.868;2024-01-10T00:26:32;25.43;;;16.90;;
15393;SDS011;7795;47.986;11.868;2024-01-10T00:28:57;26.93;;;16.90;;
15393;SDS011;7795;47.986;11.868;2024-01-10T00:31:23;28.13;;;17.40;;
15393;SDS011;7795;47.986;11.868;2024-01-10T00:33:49;26.07;;;16.47;;
15393;SDS011;7795;47.986;11.868;2024-01-10T00:36:15;27.90;;;18.10;;
15393;SDS011;7795;47.986;11.868;2024-01-10T00:38:40;26.93;;;16.30;;
15393;SDS011;7795;47.986;11.868;2024-01-10T00:41:07;27.83;;;17.97;;
15393;SDS011;7795;47.986;11.868;2024-01-10T00:43:33;31.73;;;18.83;;
15393;SDS011;7795;47.986;11.868;2024-01-10T00:45:59;28.03;;;17.27;;
15393;SDS011;7795;47.986;11.868;2024-01-10T00:48:25;30.27;;;17.70;;
15393;SDS011;7795;47.986;11.868;2024-01-10T00:50:50;27.03;;;16.47;;
15393;SDS011;7795;47.986;11.868;2024-01-10T00:53:16;28.07;;;16.97;;
15393;SDS011;7795;47.986;11.868;2024-01-10T00:55:42;30.53;;;18.47;;
15393;SDS011;7795;47.986;11.868;2024-01-10T00:58:09;29.50;;;17.13;;
15393;SDS011;7795;47.986;11.868;2024-01-10T01:00:35;29.07;;;17.67;;
15393;SDS011;7795;47.986;11.868;2024-01-10T01:03:01;34.30;;;19.07;;
15393;SDS011;7795;47.986;11.868;2024-01-10T01:05:26;28.87;;;16.57;;
15393;SDS011;7795;47.986;11.868;2024-01-10T01:07:52;29.30;;;17.53;;
15393;SDS011;7795;47.986;11.868;2024-01-10T01:10:18;30.13;;;17.23;;
15393;SDS011;7795;47.986;11.868;2024-01-10T01:12:44;27.93;;;16.27;;
15393;SDS011;7795;47.986;11.868;2024-01-10T01:15:11;29.83;;;16.90;;
15393;SDS011;7795;47.986;11.868;2024-01-10T01:17:37;34.07;;;18.10;;
15393;SDS011;7795;47.986;11.868;2024-01-10T01:20:02;31.43;;;17.70;;
15393;SDS011;7795;47.986;11.868;2024-01-10T01:22:29;31.07;;;17.93;;
15393;SDS011;7795;47.986;11.868;2024-01-10T01:24:56;28.80;;;15.73;;
15393;SDS011;7795;47.986;11.868;2024-01-10T01:27:22;28.97;;;17.27;;
15393;SDS011;7795;47.986;11.868;2024-01-10T01:29:48;35.70;;;19.47;;
15393;SDS011;7795;47.986;11.868;2024-01-10T01:32:15;31.73;;;18.87;;
15393;SDS011;7795;47.986;11.868;2024-01-10T01:34:41;31.37;;;18.23;;
15393;SDS011;7795;47.986;11.868;2024-01-10T01:37:07;32.80;;;17.97;;
15393;SDS011;7795;47.986;11.868;2024-01-10T01:39:32;30.73;;;17.47;;
15393;SDS011;7795;47.986;11.868;2024-01-10T01:41:58;30.13;;;17.63;;
15393;SDS011;7795;47.986;11.868;2024-01-10T01:44:24;29.77;;;17.83;;
15393;SDS011;7795;47.986;11.868;2024-01-10T01:46:49;31.97;;;17.13;;
15393;SDS011;7795;47.986;11.868;2024-01-10T01:49:17;31.93;;;17.43;;
15393;SDS011;7795;47.986;11.868;2024-01-10T01:51:43;30.57;;;18.40;;
15393;SDS011;7795;47.986;11.868;2024-01-10T01:54:09;31.37;;;18.43;;
15393;SDS011;7795;47.986;11.868;2024-01-10T01:56:36;31.33;;;17.73;;
15393;SDS011;7795;47.986;11.868;2024-01-10T01:59:03;29.07;;;15.60;;
15393;SDS011;7795;47.986;11.868;2024-01-10T02:01:30;27.40;;;16.53;;
15393;SDS011;7795;47.986;11.868;2024-01-10T02:03:55;29.20;;;17.43;;
15393;SDS011;7795;47.986;11.868;2024-01-10T02:06:23;31.07;;;17.47;;
15393;SDS011;7795;47.986;11.868;2024-01-10T02:08:48;29.30;;;16.57;;
15393;SDS011;7795;47.986;11.868;2024-01-10T02:11:14;33.17;;;18.50;;
15393;SDS011;7795;47.986;11.868;2024-01-10T02:13:41;28.40;;;17.20;;
15393;SDS011;7795;47.986;11.868;2024-01-10T02:16:06;30.00;;;17.60;;
15393;SDS011;7795;47.986;11.868;2024-01-10T02:18:33;28.60;;;17.40;;
15393;SDS011;7795;47.986;11.868;2024-01-10T02:21:00;35.97;;;19.47;;
15393;SDS011;7795;47.986;11.868;2024-01-10T02:23:27;34.20;;;19.43;;
15393;SDS011;7795;47.986;11.868;2024-01-10T02:25:54;32.77;;;18.50;;
15393;SDS011;7795;47.986;11.868;2024-01-10T02:28:20;32.13;;;18.83;;
15393;SDS011;7795;47.986;11.868;2024-01-10T02:30:45;31.27;;;17.93;;
15393;SDS011;7795;47.986;11.868;2024-01-10T02:33:12;32.53;;;18.73;;
15393;SDS011;7795;47.986;11.868;2024-01-10T02:35:38;30.97;;;18.20;;
15393;SDS011;7795;47.986;11.868;2024-01-10T02:38:03;28.57;;;16.43;;
15393;SDS011;7795;47.986;11.868;2024-01-10T02:40:29;30.63;;;18.47;;
15393;SDS011;7795;47.986;11.868;2024-01-10T02:42:56;32.60;;;18.17;;
15393;SDS011;7795;47.986;11.868;2024-01-10T02:45:22;28.00;;;16.20;;
15393;SDS011;7795;47.986;11.868;2024-01-10T02:47:48;27.97;;;16.57;;
15393;SDS011;7795;47.986;11.868;2024-01-10T02:50:13;29.90;;;16.93;;
15393;SDS011;7795;47.986;11.868;2024-01-10T02:52:39;31.47;;;18.37;;
15393;SDS011;7795;47.986;11.868;2024-01-10T02:55:05;34.23;;;19.33;;
15393;SDS011;7795;47.986;11.868;2024-01-10T02:57:31;31.63;;;17.50;;
15393;SDS011;7795;47.986;11.868;2024-01-10T02:59:58;32.67;;;20.00;;
15393;SDS011;7795;47.986;11.868;2024-01-10T03:02:24;31.07;;;18.27;;
15393;SDS011;7795;47.986;11.868;2024-01-10T03:04:50;30.23;;;18.53;;
15393;SDS011;7795;47.986;11.868;2024-01-10T03:07:16;28.67;;;17.90;;
15393;SDS011;7795;47.986;11.868;2024-01-10T03:09:42;29.57;;;17.77;;
15393;SDS011;7795;47.986;11.868;2024-01-10T03:12:08;29.93;;;18.03;;
15393;SDS011;7795;47.986;11.868;2024-01-10T03:14:35;27.77;;;17.57;;
15393;SDS011;7795;47.986;11.868;2024-01-10T03:17:03;31.53;;;18.57;;
15393;SDS011;7795;47.986;11.868;2024-01-10T03:19:28;31.00;;;17.27;;
15393;SDS011;7795;47.986;11.868;2024-01-10T03:21:54;34.70;;;18.57;;
15393;SDS011;7795;47.986;11.868;2024-01-10T03:24:20;30.13;;;16.63;;
15393;SDS011;7795;47.986;11.868;2024-01-10T03:26:49;30.37;;;17.03;;
15393;SDS011;7795;47.986;11.868;2024-01-10T03:29:14;29.40;;;16.20;;
15393;SDS011;7795;47.986;11.868;2024-01-10T03:31:40;27.73;;;16.97;;
15393;SDS011;7795;47.986;11.868;2024-01-10T03:34:07;31.37;;;18.00;;
15393;SDS011;7795;47.986;11.868;2024-01-10T03:36:33;31.23;;;18.23;;
15393;SDS011;7795;47.986;11.868;2024-01-10T03:38:59;29.27;;;18.17;;
15393;SDS011;7795;47.986;11.868;2024-01-10T03:41:24;27.20;;;16.63;;
15393;SDS011;7795;47.986;11.868;2024-01-10T03:43:50;26.13;;;16.67;;
15393;SDS011;7795;47.986;11.868;2024-01-10T03:46:16;26.70;;;16.23;;
15393;SDS011;7795;47.986;11.868;2024-01-10T03:48:42;26.13;;;15.27;;
15393;SDS011;7795;47.986;11.868;2024-01-10T03:51:15;30.80;;;18.03;;
15393;SDS011;7795;47.986;11.868;2024-01-10T03:53:42;29.47;;;17.10;;
15393;SDS011;7795;47.986;11.868;2024-01-10T03:56:08;32.63;;;19.33;;
15393;SDS011;7795;47.986;11.868;2024-01-10T03:58:34;35.10;;;20.37;;
15393;SDS011;7795;47.986;11.868;2024-01-10T04:01:00;31.20;;;17.27;;
15393;SDS011;7795;47.986;11.868;2024-01-10T04:03:29;30.47;;;17.73;;
15393;SDS011;7795;47.986;11.868;2024-01-10T04:05:55;29.53;;;17.47;;
15393;SDS011;7795;47.986;11.868;2024-01-10T04:08:22;28.60;;;17.13;;
15393;SDS011;7795;47.986;11.868;2024-01-10T04:10:48;31.17;;;18.47;;
15393;SDS011;7795;47.986;11.868;2024-01-10T04:13:13;31.80;;;18.83;;
15393;SDS011;7795;47.986;11.868;2024-01-10T04:15:39;34.23;;;19.37;;
15393;SDS011;7795;47.986;11.868;2024-01-10T04:18:05;31.37;;;18.67;;
15393;SDS011;7795;47.986;11.868;2024-01-10T04:20:30;26.80;;;16.67;;
15393;SDS011;7795;47.986;11.868;2024-01-10T04:22:56;31.80;;;18.03;;
15393;SDS011;7795;47.986;11.868;2024-01-10T04:25:23;30.13;;;17.70;;
15393;SDS011;7795;47.986;11.868;2024-01-10T04:27:49;29.90;;;18.07;;
15393;SDS011;7795;47.986;11.868;2024-01-10T04:30:18;33.60;;;18.57;;
15393;SDS011;7795;47.986;11.868;2024-01-10T04:32:43;34.70;;;19.40;;
15393;SDS011;7795;47.986;11.868;2024-01-10T04:35:09;32.43;;;19.47;;
15393;SDS011;7795;47.986;11.868;2024-01-10T04:37:35;33.47;;;19.17;;
15393;SDS011;7795;47.986;11.868;2024-01-10T04:40:00;34.30;;;19.77;;
15393;SDS011;7795;47.986;11.868;2024-01-10T04:42:27;34.50;;;20.50;;
15393;SDS011;7795;47.986;11.868;2024-01-10T04:44:53;30.50;;;17.80;;
15393;SDS011;7795;47.986;11.868;2024-01-10T04:47:19;33.67;;;18.60;;
15393;SDS011;7795;47.986;11.868;2024-01-10T04:49:45;33.03;;;19.37;;
15393;SDS011;7795;47.986;11.868;2024-01-10T04:52:11;33.63;;;18.63;;
15393;SDS011;7795;47.986;11.868;2024-01-10T04:54:37;34.40;;;19.20;;
15393;SDS011;7795;47.986;11.868;2024-01-10T04:57:03;29.00;;;17.10;;
15393;SDS011;7795;47.986;11.868;2024-01-10T04:59:30;34.37;;;19.93;;
15393;SDS011;7795;47.986;11.868;2024-01-10T05:01:56;32.43;;;17.27;;
15393;SDS011;7795;47.986;11.868;2024-01-10T05:04:22;32.17;;;18.33;;
15393;SDS011;7795;47.986;11.868;2024-01-10T05:06:48;35.17;;;19.37;;
15393;SDS011;7795;47.986;11.868;2024-01-10T05:09:13;35.17;;;18.63;;
15393;SDS011;7795;47.986;11.868;2024-01-10T05:11:39;34.63;;;19.57;;
15393;SDS011;7795;47.986;11.868;2024-01-10T05:14:05;31.67;;;18.53;;
15393;SDS011;7795;47.986;11.868;2024-01-10T05:16:32;30.93;;;18.47;;
15393;SDS011;7795;47.986;11.868;2024-01-10T05:19:00;34.80;;;20.47;;
15393;SDS011;7795;47.986;11.868;2024-01-10T05:21:28;33.80;;;19.00;;
15393;SDS011;7795;47.986;11.868;2024-01-10T05:23:55;34.53;;;19.90;;
15393;SDS011;7795;47.986;11.868;2024-01-10T05:26:20;33.37;;;18.83;;
15393;SDS011;7795;47.986;11.868;2024-01-10T05:28:46;32.83;;;20.50;;
15393;SDS011;7795;47.986;11.868;2024-01-10T05:31:12;32.33;;;18.27;;
15393;SDS011;7795;47.986;11.868;2024-01-10T05:33:39;35.87;;;20.17;;
15393;SDS011;7795;47.986;11.868;2024-01-10T05:36:05;33.63;;;19.83;;
15393;SDS011;7795;47.986;11.868;2024-01-10T05:38:31;37.47;;;21.00;;
15393;SDS011;7795;47.986;11.868;2024-01-10T05:40:57;36.47;;;21.43;;
15393;SDS011;7795;47.986;11.868;2024-01-10T05:43:22;36.73;;;21.50;;
15393;SDS011;7795;47.986;11.868;2024-01-10T05:45:48;37.87;;;21.83;;
15393;SDS011;7795;47.986;11.868;2024-01-10T05:48:14;37.83;;;21.53;;
15393;SDS011;7795;47.986;11.868;2024-01-10T05:50:43;33.70;;;20.83;;
15393;SDS011;7795;47.986;11.868;2024-01-10T05:53:09;39.80;;;23.03;;
15393;SDS011;7795;47.986;11.868;2024-01-10T05:55:35;34.17;;;21.23;;
15393;SDS011;7795;47.986;11.868;2024-01-10T05:58:01;34.13;;;19.53;;
15393;SDS011;7795;47.986;11.868;2024-01-10T06:00:27;34.53;;;20.57;;
15393;SDS011;7795;47.986;11.868;2024-01-10T06:02:53;35.50;;;18.83;;
15393;SDS011;7795;47.986;11.868;2024-01-10T06:05:19;35.30;;;20.13;;
15393;SDS011;7795;47.986;11.868;2024-01-10T06:07:46;32.77;;;19.57;;
15393;SDS011;7795;47.986;11.868;2024-01-10T06:10:12;36.10;;;22.00;;
15393;SDS011;7795;47.986;11.868;2024-01-10T06:12:37;33.63;;;19.27;;
15393;SDS011;7795;47.986;11.868;2024-01-10T06:15:04;36.73;;;20.80;;
15393;SDS011;7795;47.986;11.868;2024-01-10T06:17:31;33.07;;;19.93;;
15393;SDS011;7795;47.986;11.868;2024-01-10T06:19:57;38.70;;;21.13;;
15393;SDS011;7795;47.986;11.868;2024-01-10T06:22:25;35.17;;;19.60;;
15393;SDS011;7795;47.986;11.868;2024-01-10T06:24:52;31.20;;;18.73;;
15393;SDS011;7795;47.986;11.868;2024-01-10T06:27:18;35.50;;;20.23;;
15393;SDS011;7795;47.986;11.868;2024-01-10T06:29:44;37.00;;;21.23;;
15393;SDS011;7795;47.986;11.868;2024-01-10T06:32:10;39.40;;;21.20;;
15393;SDS011;7795;47.986;11.868;2024-01-10T06:34:35;35.57;;;19.80;;
15393;SDS011;7795;47.986;11.868;2024-01-10T06:37:01;36.77;;;21.10;;
15393;SDS011;7795;47.986;11.868;2024-01-10T06:39:27;32.50;;;18.80;;
15393;SDS011;7795;47.986;11.868;2024-01-10T06:41:54;33.30;;;19.37;;
15393;SDS011;7795;47.986;11.868;2024-01-10T06:44:20;37.87;;;21.27;;
15393;SDS011;7795;47.986;11.868;2024-01-10T06:46:46;32.23;;;18.77;;
15393;SDS011;7795;47.986;11.868;2024-01-10T06:49:11;39.03;;;21.67;;
15393;SDS011;7795;47.986;11.868;2024-01-10T06:51:37;36.23;;;21.67;;
15393;SDS011;7795;47.986;11.868;2024-01-10T06:54:03;35.87;;;20.40;;
15393;SDS011;7795;47.986;11.868;2024-01-10T06:56:29;35.50;;;21.37;;
15393;SDS011;7795;47.986;11.868;2024-01-10T06:58:57;35.10;;;20.83;;
15393;SDS011;7795;47.986;11.868;2024-01-10T07:01:23;44.73;;;30.17;;
15393;SDS011;7795;47.986;11.868;2024-01-10T07:03:49;36.00;;;21.30;;
15393;SDS011;7795;47.986;11.868;2024-01-10T07:06:16;36.97;;;20.97;;
15393;SDS011;7795;47.986;11.868;2024-01-10T07:08:42;38.17;;;20.20;;
15393;SDS011;7795;47.986;11.868;2024-01-10T07:11:09;35.57;;;21.23;;
15393;SDS011;7795;47.986;11.868;2024-01-10T07:13:36;38.60;;;21.83;;
15393;SDS011;7795;47.986;11.868;2024-01-10T07:16:03;32.83;;;20.53;;
15393;SDS011;7795;47.986;11.868;2024-01-10T07:18:29;36.17;;;20.70;;
15393;SDS011;7795;47.986;11.868;2024-01-10T07:20:56;29.63;;;17.90;;
15393;SDS011;7795;47.986;11.868;2024-01-10T07:23:21;35.90;;;21.57;;
15393;SDS011;7795;47.986;11.868;2024-01-10T07:25:50;36.37;;;21.67;;
15393;SDS011;7795;47.986;11.868;2024-01-10T07:28:16;35.50;;;20.63;;
15393;SDS011;7795;47.986;11.868;2024-01-10T07:30:42;35.27;;;20.27;;
15393;SDS011;7795;47.986;11.868;2024-01-10T07:33:10;32.73;;;19.27;;
15393;SDS011;7795;47.986;11.868;2024-01-10T07:35:36;34.23;;;19.80;;
15393;SDS011;7795;47.986;11.868;2024-01-10T07:38:03;35.63;;;20.37;;
15393;SDS011;7795;47.986;11.868;2024-01-10T07:40:30;35.17;;;19.47;;
15393;SDS011;7795;47.986;11.868;2024-01-10T07:42:57;35.10;;;20.87;;
15393;SDS011;7795;47.986;11.868;2024-01-10T07:45:22;36.57;;;19.43;;
15393;SDS011;7795;47.986;11.868;2024-01-10T07:47:48;35.33;;;21.37;;
15393;SDS011;7795;47.986;11.868;2024-01-10T07:50:15;36.07;;;21.53;;
15393;SDS011;7795;47.986;11.868;2024-01-10T07:52:42;35.57;;;20.70;;
15393;SDS011;7795;47.986;11.868;2024-01-10T07:55:09;37.40;;;21.27;;
15393;SDS011;7795;47.986;11.868;2024-01-10T07:57:35;38.67;;;20.87;;
15393;SDS011;7795;47.986;11.868;2024-01-10T08:00:02;38.57;;;20.97;;
15393;SDS011;7795;47.986;11.868;2024-01-10T08:02:29;33.43;;;19.50;;
15393;SDS011;7795;47.986;11.868;2024-01-10T08:04:59;36.10;;;20.00;;
15393;SDS011;7795;47.986;11.868;2024-01-10T08:07:26;40.60;;;21.20;;
15393;SDS011;7795;47.986;11.868;2024-01-10T08:09:52;39.07;;;22.13;;
15393;SDS011;7795;47.986;11.868;2024-01-10T08:12:17;35.03;;;19.93;;
15393;SDS011;7795;47.986;11.868;2024-01-10T08:14:44;38.07;;;21.10;;
15393;SDS011;7795;47.986;11.868;2024-01-10T08:17:15;34.13;;;20.47;;
15393;SDS011;7795;47.986;11.868;2024-01-10T08:19:40;36.93;;;21.03;;
15393;SDS011;7795;47.986;11.868;2024-01-10T08:22:07;40.57;;;21.07;;
15393;SDS011;7795;47.986;11.868;2024-01-10T08:24:34;38.57;;;21.33;;
15393;SDS011;7795;47.986;11.868;2024-01-10T08:27:01;46.87;;;28.00;;
15393;SDS011;7795;47.986;11.868;2024-01-10T08:29:27;38.03;;;21.23;;
15393;SDS011;7795;47.986;11.868;2024-01-10T08:31:56;42.70;;;26.20;;
15393;SDS011;7795;47.986;11.868;2024-01-10T08:34:22;42.07;;;26.57;;
15393;SDS011;7795;47.986;11.868;2024-01-10T08:36:48;44.97;;;24.57;;
15393;SDS011;7795;47.986;11.868;2024-01-10T08:39:17;37.07;;;21.70;;
15393;SDS011;7795;47.986;11.868;2024-01-10T08:41:44;42.37;;;26.40;;
15393;SDS011;7795;47.986;11.868;2024-01-10T08:44:10;39.97;;;22.77;;
15393;SDS011;7795;47.986;11.868;2024-01-10T08:46:35;40.73;;;25.60;;
15393;SDS011;7795;47.986;11.868;2024-01-10T08:49:01;42.37;;;24.57;;
15393;SDS011;7795;47.986;11.868;2024-01-10T08:51:27;39.80;;;23.37;;
15393;SDS011;7795;47.986;11.868;2024-01-10T08:53:53;40.03;;;23.83;;
15393;SDS011;7795;47.986;11.868;2024-01-10T08:56:19;36.83;;;23.10;;
15393;SDS011;7795;47.986;11.868;2024-01-10T08:58:46;35.40;;;20.83;;
15393;SDS011;7795;47.986;11.868;2024-01-10T09:01:12;32.90;;;20.10;;
15393;SDS011;7795;47.986;11.868;2024-01-10T09:03:38;34.43;;;19.37;;
15393;SDS011;7795;47.986;11.868;2024-01-10T09:06:04;37.77;;;21.67;;
15393;SDS011;7795;47.986;11.868;2024-01-10T09:08:32;48.37;;;31.10;;
15393;SDS011;7795;47.986;11.868;2024-01-10T09:10:58;40.27;;;23.23;;
15393;SDS011;7795;47.986;11.868;2024-01-10T09:13:24;34.60;;;20.67;;
15393;SDS011;7795;47.986;11.868;2024-01-10T09:15:51;40.10;;;21.20;;
15393;SDS011;7795;47.986;11.868;2024-01-10T09:18:17;37.60;;;23.67;;
15393;SDS011;7795;47.986;11.868;2024-01-10T09:20:42;34.60;;;22.23;;
15393;SDS011;7795;47.986;11.868;2024-01-10T09:23:09;42.87;;;24.60;;
15393;SDS011;7795;47.986;11.868;2024-01-10T09:25:36;40.30;;;23.07;;
15393;SDS011;7795;47.986;11.868;2024-01-10T09:28:02;41.97;;;23.13;;
15393;SDS011;7795;47.986;11.868;2024-01-10T09:30:29;39.40;;;21.83;;
15393;SDS011;7795;47.986;11.868;2024-01-10T09:32:56;40.67;;;23.23;;
15393;SDS011;7795;47.986;11.868;2024-01-10T09:35:21;42.30;;;23.47;;
15393;SDS011;7795;47.986;11.868;2024-01-10T09:37:47;44.63;;;23.70;;
15393;SDS011;7795;47.986;11.868;2024-01-10T09:40:14;47.43;;;25.13;;
15393;SDS011;7795;47.986;11.868;2024-01-10T09:42:41;45.17;;;24.23;;
15393;SDS011;7795;47.986;11.868;2024-01-10T09:45:09;47.23;;;26.43;;
15393;SDS011;7795;47.986;11.868;2024-01-10T09:47:38;44.57;;;24.63;;
15393;SDS011;7795;47.986;11.868;2024-01-10T09:50:06;43.70;;;23.93;;
15393;SDS011;7795;47.986;11.868;2024-01-10T09:52:34;36.73;;;20.73;;
15393;SDS011;7795;47.986;11.868;2024-01-10T09:55:06;39.77;;;22.33;;
15393;SDS011;7795;47.986;11.868;2024-01-10T09:57:34;37.47;;;21.57;;
15393;SDS011;7795;47.986;11.868;2024-01-10T10:00:01;43.00;;;25.10;;
15393;SDS011;7795;47.986;11.868;2024-01-10T10:02:30;45.67;;;24.47;;
15393;SDS011;7795;47.986;11.868;2024-01-10T10:05:00;48.37;;;26.93;;
15393;SDS011;7795;47.986;11.868;2024-01-10T10:07:32;42.17;;;23.77;;
15393;SDS011;7795;47.986;11.868;2024-01-10T10:10:08;44.53;;;24.33;;
15393;SDS011;7795;47.986;11.868;2024-01-10T10:12:44;42.47;;;22.83;;
15393;SDS011;7795;47.986;11.868;2024-01-10T10:15:11;44.77;;;23.80;;
15393;SDS011;7795;47.986;11.868;2024-01-10T10:17:38;43.20;;;24.00;;
15393;SDS011;7795;47.986;11.868;2024-01-10T10:20:11;45.37;;;24.77;;
15393;SDS011;7795;47.986;11.868;2024-01-10T10:22:40;47.60;;;23.90;;
15393;SDS011;7795;47.986;11.868;2024-01-10T10:25:16;40.60;;;22.80;;
15393;SDS011;7795;47.986;11.868;2024-01-10T10:27:42;39.17;;;22.90;;
15393;SDS011;7795;47.986;11.868;2024-01-10T10:30:08;39.43;;;21.07;;
15393;SDS011;7795;47.986;11.868;2024-01-10T10:32:34;38.77;;;21.43;;
15393;SDS011;7795;47.986;11.868;2024-01-10T10:35:00;38.63;;;21.13;;
15393;SDS011;7795;47.986;11.868;2024-01-10T10:37:26;40.20;;;22.77;;
15393;SDS011;7795;47.986;11.868;2024-01-10T10:39:53;39.60;;;21.40;;
15393;SDS011;7795;47.986;11.868;2024-01-10T10:42:18;46.40;;;24.57;;
15393;SDS011;7795;47.986;11.868;2024-01-10T10:44:47;42.77;;;25.03;;
15393;SDS011;7795;47.986;11.868;2024-01-10T10:47:15;45.20;;;24.73;;
15393;SDS011;7795;47.986;11.868;2024-01-10T10:49:45;44.53;;;25.03;;
15393;SDS011;7795;47.986;11.868;2024-01-10T10:52:16;38.00;;;23.07;;
15393;SDS011;7795;47.986;11.868;2024-01-10T10:54:44;38.77;;;22.57;;
15393;SDS011;7795;47.986;11.868;2024-01-10T10:57:14;42.07;;;23.30;;
15393;SDS011;7795;47.986;11.868;2024-01-10T10:59:42;35.87;;;21.97;;
15393;SDS011;7795;47.986;11.868;2024-01-10T11:02:09;41.70;;;24.23;;
15393;SDS011;7795;47.986;11.868;2024-01-10T11:04:38;34.90;;;20.00;;
15393;SDS011;7795;47.986;11.868;2024-01-10T11:07:06;38.47;;;21.97;;
15393;SDS011;7795;47.986;11.868;2024-01-10T11:09:33;37.13;;;21.50;;
15393;SDS011;7795;47.986;11.868;2024-01-10T11:12:14;37.27;;;20.90;;
15393;SDS011;7795;47.986;11.868;2024-01-10T11:14:54;39.83;;;23.07;;
15393;SDS011;7795;47.986;11.868;2024-01-10T11:17:39;42.40;;;22.60;;
15393;SDS011;7795;47.986;11.868;2024-01-10T11:20:29;38.83;;;23.20;;
15393;SDS011;7795;47.986;11.868;2024-01-10T11:23:15;39.10;;;22.57;;
15393;SDS011;7795;47.986;11.868;2024-01-10T11:25:54;37.27;;;21.47;;
15393;SDS011;7795;47.986;11.868;2024-01-10T11:28:23;33.43;;;20.13;;
15393;SDS011;7795;47.986;11.868;2024-01-10T11:30:51;35.90;;;20.87;;
15393;SDS011;7795;47.986;11.868;2024-01-10T11:33:18;38.77;;;23.70;;
15393;SDS011;7795;47.986;11.868;2024-01-10T11:38:43;39.90;;;22.33;;
15393;SDS011;7795;47.986;11.868;2024-01-10T11:41:15;38.17;;;20.63;;
15393;SDS011;7795;47.986;11.868;2024-01-10T11:43:47;42.83;;;22.80;;
15393;SDS011;7795;47.986;11.868;2024-01-10T11:46:52;38.00;;;22.77;;
15393;SDS011;7795;47.986;11.868;2024-01-10T11:49:20;38.77;;;21.77;;
15393;SDS011;7795;47.986;11.868;2024-01-10T11:51:47;41.33;;;23.43;;
15393;SDS011;7795;47.986;11.868;2024-01-10T11:57:00;38.63;;;21.70;;
15393;SDS011;7795;47.986;11.868;2024-01-10T11:59:28;41.77;;;24.23;;
15393;SDS011;7795;47.986;11.868;2024-01-10T12:01:55;40.90;;;24.13;;
15393;SDS011;7795;47.986;11.868;2024-01-10T12:04:22;41.10;;;23.47;;
15393;SDS011;7795;47.986;11.868;2024-01-10T12:06:48;41.23;;;22.13;;
15393;SDS011;7795;47.986;11.868;2024-01-10T12:09:14;41.10;;;23.20;;
15393;SDS011;7795;47.986;11.868;2024-01-10T12:11:41;42.23;;;23.87;;
15393;SDS011;7795;47.986;11.868;2024-01-10T12:14:07;39.13;;;22.73;;
15393;SDS011;7795;47.986;11.868;2024-01-10T12:16:35;40.97;;;22.47;;
15393;SDS011;7795;47.986;11.868;2024-01-10T12:19:01;38.37;;;21.57;;
15393;SDS011;7795;47.986;11.868;2024-01-10T12:21:26;40.27;;;23.00;;
15393;SDS011;7795;47.986;11.868;2024-01-10T12:23:52;39.23;;;22.07;;
15393;SDS011;7795;47.986;11.868;2024-01-10T12:26:18;36.53;;;20.77;;
15393;SDS011;7795;47.986;11.868;2024-01-10T12:28:52;34.90;;;19.93;;
15393;SDS011;7795;47.986;11.868;2024-01-10T12:31:19;40.17;;;21.80;;
15393;SDS011;7795;47.986;11.868;2024-01-10T12:33:46;40.10;;;21.97;;
15393;SDS011;7795;47.986;11.868;2024-01-10T12:36:12;41.00;;;22.37;;
15393;SDS011;7795;47.986;11.868;2024-01-10T12:38:38;39.23;;;22.77;;
15393;SDS011;7795;47.986;11.868;2024-01-10T12:41:04;37.47;;;21.70;;
15393;SDS011;7795;47.986;11.868;2024-01-10T12:43:30;33.57;;;19.13;;
15393;SDS011;7795;47.986;11.868;2024-01-10T12:46:03;36.77;;;20.93;;
15393;SDS011;7795;47.986;11.868;2024-01-10T12:48:30;39.40;;;21.83;;
15393;SDS011;7795;47.986;11.868;2024-01-10T12:50:57;36.33;;;20.37;;
15393;SDS011;7795;47.986;11.868;2024-01-10T12:53:25;36.87;;;21.00;;
15393;SDS011;7795;47.986;11.868;2024-01-10T12:55:53;36.60;;;20.50;;
15393;SDS011;7795;47.986;11.868;2024-01-10T12:58:19;36.10;;;20.90;;
15393;SDS011;7795;47.986;11.868;2024-01-10T13:00:45;38.67;;;20.77;;
15393;SDS011;7795;47.986;11.868;2024-01-10T13:03:11;36.93;;;21.40;;
15393;SDS011;7795;47.986;11.868;2024-01-10T13:05:37;39.97;;;21.13;;
15393;SDS011;7795;47.986;11.868;2024-01-10T13:08:04;37.23;;;21.40;;
15393;SDS011;7795;47.986;11.868;2024-01-10T13:10:31;37.03;;;19.43;;
15393;SDS011;7795;47.986;11.868;2024-01-10T13:12:56;39.30;;;21.57;;
15393;SDS011;7795;47.986;11.868;2024-01-10T13:15:22;38.80;;;21.73;;
15393;SDS011;7795;47.986;11.868;2024-01-10T13:17:48;38.83;;;21.97;;
15393;SDS011;7795;47.986;11.868;2024-01-10T13:20:14;39.43;;;21.43;;
15393;SDS011;7795;47.986;11.868;2024-01-10T13:22:40;37.53;;;21.63;;
15393;SDS011;7795;47.986;11.868;2024-01-10T13:25:07;35.67;;;19.77;;
15393;SDS011;7795;47.986;11.868;2024-01-10T13:27:33;34.17;;;20.20;;
15393;SDS011;7795;47.986;11.868;2024-01-10T13:29:59;34.27;;;20.07;;
15393;SDS011;7795;47.986;11.868;2024-01-10T13:32:25;36.97;;;20.30;;
15393;SDS011;7795;47.986;11.868;2024-01-10T13:34:51;39.87;;;21.47;;
15393;SDS011;7795;47.986;11.868;2024-01-10T13:37:16;36.40;;;20.00;;
15393;SDS011;7795;47.986;11.868;2024-01-10T13:39:42;36.20;;;21.60;;
15393;SDS011;7795;47.986;11.868;2024-01-10T13:42:09;35.63;;;20.13;;
15393;SDS011;7795;47.986;11.868;2024-01-10T13:44:35;36.20;;;20.40;;
15393;SDS011;7795;47.986;11.868;2024-01-10T13:47:01;36.27;;;20.83;;
15393;SDS011;7795;47.986;11.868;2024-01-10T13:49:28;33.60;;;19.67;;
15393;SDS011;7795;47.986;11.868;2024-01-10T13:51:54;31.97;;;19.60;;
15393;SDS011;7795;47.986;11.868;2024-01-10T13:54:20;31.77;;;18.33;;
15393;SDS011;7795;47.986;11.868;2024-01-10T13:56:46;33.03;;;19.57;;
15393;SDS011;7795;47.986;11.868;2024-01-10T13:59:14;34.13;;;19.70;;
15393;SDS011;7795;47.986;11.868;2024-01-10T14:01:39;35.47;;;19.40;;
15393;SDS011;7795;47.986;11.868;2024-01-10T14:04:05;30.07;;;19.10;;
15393;SDS011;7795;47.986;11.868;2024-01-10T14:06:31;31.30;;;18.73;;
15393;SDS011;7795;47.986;11.868;2024-01-10T14:08:57;29.53;;;17.77;;
15393;SDS011;7795;47.986;11.868;2024-01-10T14:11:23;34.50;;;18.83;;
15393;SDS011;7795;47.986;11.868;2024-01-10T14:13:49;30.57;;;18.70;;
15393;SDS011;7795;47.986;11.868;2024-01-10T14:16:19;29.93;;;18.17;;
15393;SDS011;7795;47.986;11.868;2024-01-10T14:18:44;32.03;;;18.60;;
15393;SDS011;7795;47.986;11.868;2024-01-10T14:21:12;32.17;;;18.93;;
15393;SDS011;7795;47.986;11.868;2024-01-10T14:23:38;27.30;;;17.33;;
15393;SDS011;7795;47.986;11.868;2024-01-10T14:26:03;32.43;;;18.40;;